Time,TemperatureF,DewpointF,PressureIn,WindDirection,WindDirectionDegrees,WindSpeedMPH,WindSpeedGustMPH,Humidity,HourlyPrecipIn,Conditions,Clouds,dailyrainin,SoftwareType,DateUTC
2013-07-18 00:05:00,75.6,74.0,30.17,WNW,300,0.0,0.0,95,0.00,,,0.00,weatherlink.com 1.10,2013-07-18 04:05:00,
2013-07-18 00:20:00,75.3,74.0,30.18,WNW,300,0.0,0.0,96,0.00,,,0.00,weatherlink.com 1.10,2013-07-18 04:20:00,
2013-07-18 00:35:00,75.0,74.0,30.18,WNW,300,0.0,0.0,96,0.00,,,0.00,weatherlink.com 1.10,2013-07-18 04:35:00,
2013-07-18 00:51:00,74.9,74.0,30.17,WNW,300,0.0,0.0,96,0.00,,,0.00,weatherlink.com 1.10,2013-07-18 04:51:00,
2013-07-18 01:05:00,74.9,74.0,30.18,WNW,300,0.0,0.0,96,0.00,,,0.00,weatherlink.com 1.10,2013-07-18 05:05:00,
2013-07-18 01:20:00,74.6,73.0,30.17,WNW,300,0.0,0.0,96,0.00,,,0.00,weatherlink.com 1.10,2013-07-18 05:20:00,
2013-07-18 01:36:00,74.4,74.0,30.18,WNW,300,0.0,0.0,97,0.00,,,0.00,weatherlink.com 1.10,2013-07-18 05:36:00,
2013-07-18 01:51:00,74.2,73.0,30.17,WNW,300,0.0,0.0,97,0.00,,,0.00,weatherlink.com 1.10,2013-07-18 05:51:00,
2013-07-18 02:06:00,74.0,73.0,30.17,WNW,300,0.0,0.0,97,0.00,,,0.00,weatherlink.com 1.10,2013-07-18 06:06:00,
2013-07-18 02:23:00,74.0,73.0,30.16,WNW,300,0.0,2.0,97,0.00,,,0.00,weatherlink.com 1.10,2013-07-18 06:23:00,
2013-07-18 02:38:00,74.0,73.0,30.16,WNW,300,0.0,0.0,97,0.00,,,0.00,weatherlink.com 1.10,2013-07-18 06:38:00,
2013-07-18 02:53:00,73.8,73.0,30.16,WNW,300,0.0,0.0,97,0.00,,,0.00,weatherlink.com 1.10,2013-07-18 06:53:00,
2013-07-18 03:08:00,73.4,73.0,30.16,WNW,300,0.0,0.0,97,0.00,,,0.00,weatherlink.com 1.10,2013-07-18 07:08:00,
2013-07-18 03:23:00,73.2,72.0,30.16,WNW,300,0.0,0.0,97,0.00,,,0.00,weatherlink.com 1.10,2013-07-18 07:23:00,
2013-07-18 03:38:00,73.0,72.0,30.15,WNW,300,0.0,0.0,97,0.00,,,0.00,weatherlink.com 1.10,2013-07-18 07:38:00,
2013-07-18 03:53:00,72.9,72.0,30.16,WNW,300,0.0,0.0,97,0.00,,,0.00,weatherlink.com 1.10,2013-07-18 07:53:00,
2013-07-18 04:08:00,72.6,72.0,30.16,WNW,300,0.0,0.0,97,0.00,,,0.00,weatherlink.com 1.10,2013-07-18 08:08:00,
2013-07-18 04:23:00,72.5,72.0,30.15,WNW,300,0.0,0.0,98,0.00,,,0.00,weatherlink.com 1.10,2013-07-18 08:23:00,
2013-07-18 04:39:00,72.2,71.0,30.15,WNW,300,0.0,0.0,97,0.00,,,0.00,weatherlink.com 1.10,2013-07-18 08:39:00,
2013-07-18 04:54:00,72.2,72.0,30.14,WNW,300,0.0,0.0,98,0.00,,,0.00,weatherlink.com 1.10,2013-07-18 08:54:00,
2013-07-18 05:10:00,72.2,72.0,30.14,WNW,300,0.0,0.0,98,0.00,,,0.00,weatherlink.com 1.10,2013-07-18 09:10:00,
2013-07-18 05:25:00,72.2,72.0,30.14,WNW,300,0.0,0.0,98,0.00,,,0.00,weatherlink.com 1.10,2013-07-18 09:25:00,
2013-07-18 05:40:00,72.1,72.0,30.14,WNW,300,0.0,0.0,98,0.00,,,0.00,weatherlink.com 1.10,2013-07-18 09:40:00,
2013-07-18 05:55:00,71.9,71.0,30.14,WNW,300,0.0,0.0,98,0.00,,,0.00,weatherlink.com 1.10,2013-07-18 09:55:00,
2013-07-18 06:10:00,71.6,71.0,30.14,WNW,300,0.0,0.0,98,0.00,,,0.00,weatherlink.com 1.10,2013-07-18 10:10:00,
2013-07-18 06:27:00,71.7,71.0,30.14,WNW,300,0.0,0.0,98,0.00,,,0.00,weatherlink.com 1.10,2013-07-18 10:27:00,
2013-07-18 06:41:00,71.7,71.0,30.14,WNW,300,0.0,0.0,98,0.00,,,0.00,weatherlink.com 1.10,2013-07-18 10:41:00,
2013-07-18 06:56:00,71.8,72.0,30.14,WNW,300,0.0,0.0,99,0.00,,,0.00,weatherlink.com 1.10,2013-07-18 10:56:00,
2013-07-18 07:12:00,72.0,72.0,30.14,WNW,300,0.0,0.0,99,0.00,,,0.00,weatherlink.com 1.10,2013-07-18 11:12:00,
2013-07-18 07:27:00,72.6,72.0,30.14,ESE,111,0.0,0.0,99,0.00,,,0.00,weatherlink.com 1.10,2013-07-18 11:27:00,
2013-07-18 07:43:00,73.5,73.0,30.14,ESE,111,0.0,0.0,99,0.00,,,0.00,weatherlink.com 1.10,2013-07-18 11:43:00,
2013-07-18 07:58:00,74.3,74.0,30.14,ESE,111,0.0,0.0,99,0.00,,,0.00,weatherlink.com 1.10,2013-07-18 11:58:00,
2013-07-18 08:13:00,75.6,75.0,30.14,ESE,111,0.0,0.0,97,0.00,,,0.00,weatherlink.com 1.10,2013-07-18 12:13:00,
2013-07-18 08:28:00,76.9,75.0,30.15,West,263,2.0,4.0,94,0.00,,,0.00,weatherlink.com 1.10,2013-07-18 12:28:00,
2013-07-18 08:43:00,78.4,75.0,30.15,West,277,5.0,7.0,90,0.00,,,0.00,weatherlink.com 1.10,2013-07-18 12:43:00,
2013-07-18 08:58:00,79.7,76.0,30.15,West,277,5.0,7.0,87,0.00,,,0.00,weatherlink.com 1.10,2013-07-18 12:58:00,
2013-07-18 09:14:00,80.6,76.0,30.14,WNW,283,2.0,6.0,85,0.00,,,0.00,weatherlink.com 1.10,2013-07-18 13:14:00,
2013-07-18 09:29:00,81.4,77.0,30.14,West,276,2.0,5.0,85,0.00,,,0.00,weatherlink.com 1.10,2013-07-18 13:29:00,
2013-07-18 09:44:00,82.1,77.0,30.14,West,267,3.0,5.0,84,0.00,,,0.00,weatherlink.com 1.10,2013-07-18 13:44:00,
2013-07-18 10:00:00,83.1,78.0,30.14,West,273,1.0,5.0,83,0.00,,,0.00,weatherlink.com 1.10,2013-07-18 14:00:00,
2013-07-18 10:14:00,83.7,77.0,30.14,NW,304,3.0,7.0,80,0.00,,,0.00,weatherlink.com 1.10,2013-07-18 14:14:00,
2013-07-18 10:30:00,84.2,77.0,30.14,West,277,4.0,7.0,79,0.00,,,0.00,weatherlink.com 1.10,2013-07-18 14:30:00,
2013-07-18 10:45:00,84.9,77.0,30.14,NW,304,3.0,8.0,78,0.00,,,0.00,weatherlink.com 1.10,2013-07-18 14:45:00,
2013-07-18 11:01:00,85.6,78.0,30.14,WNW,293,2.0,10.0,77,0.00,,,0.00,weatherlink.com 1.10,2013-07-18 15:01:00,
2013-07-18 11:15:00,86.0,77.0,30.14,WNW,286,4.0,7.0,75,0.00,,,0.00,weatherlink.com 1.10,2013-07-18 15:15:00,
2013-07-18 11:31:00,86.3,78.0,30.13,NW,315,5.0,7.0,75,0.00,,,0.00,weatherlink.com 1.10,2013-07-18 15:31:00,
2013-07-18 11:46:00,86.9,77.0,30.13,West,265,6.0,7.0,73,0.00,,,0.00,weatherlink.com 1.10,2013-07-18 15:46:00,
2013-07-18 12:01:00,87.5,77.0,30.13,WSW,245,4.0,8.0,71,0.00,,,0.00,weatherlink.com 1.10,2013-07-18 16:01:00,
2013-07-18 12:17:00,87.6,77.0,30.12,West,273,3.0,7.0,70,0.00,,,0.00,weatherlink.com 1.10,2013-07-18 16:17:00,
2013-07-18 12:32:00,87.5,77.0,30.12,WNW,293,4.0,9.0,71,0.00,,,0.00,weatherlink.com 1.10,2013-07-18 16:32:00,
2013-07-18 12:47:00,88.1,78.0,30.12,WNW,284,2.0,6.0,72,0.00,,,0.00,weatherlink.com 1.10,2013-07-18 16:47:00,
2013-07-18 13:03:00,88.6,78.0,30.11,WNW,289,3.0,8.0,71,0.00,,,0.00,weatherlink.com 1.10,2013-07-18 17:03:00,
2013-07-18 13:17:00,88.8,76.0,30.11,WSW,256,2.0,7.0,67,0.00,,,0.00,weatherlink.com 1.10,2013-07-18 17:17:00,
2013-07-18 13:32:00,88.5,77.0,30.11,WNW,301,3.0,10.0,69,0.00,,,0.00,weatherlink.com 1.10,2013-07-18 17:32:00,
2013-07-18 13:48:00,88.6,78.0,30.10,West,259,2.0,8.0,70,0.00,,,0.00,weatherlink.com 1.10,2013-07-18 17:48:00,
2013-07-18 14:03:00,89.1,78.0,30.09,SW,228,3.0,6.0,69,0.00,,,0.00,weatherlink.com 1.10,2013-07-18 18:03:00,
2013-07-18 14:18:00,89.6,77.0,30.09,West,275,1.0,7.0,67,0.00,,,0.00,weatherlink.com 1.10,2013-07-18 18:18:00,
2013-07-18 14:33:00,89.9,77.0,30.08,West,281,6.0,7.0,65,0.00,,,0.00,weatherlink.com 1.10,2013-07-18 18:33:00,
2013-07-18 14:49:00,90.1,77.0,30.08,West,261,4.0,9.0,65,0.00,,,0.00,weatherlink.com 1.10,2013-07-18 18:49:00,
2013-07-18 15:04:00,90.4,77.0,30.08,WSW,241,5.0,12.0,65,0.00,,,0.00,weatherlink.com 1.10,2013-07-18 19:04:00,
2013-07-18 15:20:00,90.4,77.0,30.07,WSW,250,5.0,9.0,64,0.00,,,0.00,weatherlink.com 1.10,2013-07-18 19:20:00,
2013-07-18 15:35:00,90.2,77.0,30.07,SW,236,3.0,10.0,66,0.00,,,0.00,weatherlink.com 1.10,2013-07-18 19:35:00,
2013-07-18 15:50:00,90.7,77.0,30.06,West,279,4.0,7.0,64,0.00,,,0.00,weatherlink.com 1.10,2013-07-18 19:50:00,
2013-07-18 16:05:00,90.8,77.0,30.05,WSW,254,1.0,10.0,64,0.00,,,0.00,weatherlink.com 1.10,2013-07-18 20:05:00,
2013-07-18 16:20:00,91.1,76.0,30.04,WNW,298,2.0,7.0,62,0.00,,,0.00,weatherlink.com 1.10,2013-07-18 20:20:00,
2013-07-18 16:36:00,90.9,77.0,30.04,SW,230,2.0,8.0,63,0.00,,,0.00,weatherlink.com 1.10,2013-07-18 20:36:00,
2013-07-18 16:51:00,91.2,76.0,30.03,WSW,240,3.0,6.0,62,0.00,,,0.00,weatherlink.com 1.10,2013-07-18 20:51:00,
2013-07-18 17:07:00,91.4,77.0,30.03,West,265,7.0,7.0,62,0.00,,,0.00,weatherlink.com 1.10,2013-07-18 21:07:00,
2013-07-18 17:22:00,91.5,76.0,30.02,WSW,250,4.0,9.0,61,0.00,,,0.00,weatherlink.com 1.10,2013-07-18 21:22:00,
2013-07-18 17:38:00,91.4,76.0,30.02,West,261,11.0,11.0,61,0.00,,,0.00,weatherlink.com 1.10,2013-07-18 21:38:00,
2013-07-18 17:52:00,90.9,76.0,30.01,West,264,4.0,8.0,62,0.00,,,0.00,weatherlink.com 1.10,2013-07-18 21:52:00,
2013-07-18 18:08:00,91.4,77.0,30.00,West,272,3.0,6.0,62,0.00,,,0.00,weatherlink.com 1.10,2013-07-18 22:08:00,
2013-07-18 18:22:00,91.8,76.0,30.00,SW,225,2.0,5.0,60,0.00,,,0.00,weatherlink.com 1.10,2013-07-18 22:22:00,
2013-07-18 18:38:00,91.5,77.0,30.00,West,269,4.0,6.0,62,0.00,,,0.00,weatherlink.com 1.10,2013-07-18 22:38:00,
2013-07-18 18:54:00,91.0,76.0,29.99,WSW,248,3.0,7.0,61,0.00,,,0.00,weatherlink.com 1.10,2013-07-18 22:54:00,
2013-07-18 19:08:00,90.7,76.0,29.99,WSW,247,1.0,6.0,63,0.00,,,0.00,weatherlink.com 1.10,2013-07-18 23:08:00,
2013-07-18 19:24:00,90.2,76.0,29.99,West,274,1.0,7.0,63,0.00,,,0.00,weatherlink.com 1.10,2013-07-18 23:24:00,
2013-07-18 19:39:00,89.8,77.0,29.98,West,269,1.0,3.0,66,0.00,,,0.00,weatherlink.com 1.10,2013-07-18 23:39:00,
2013-07-18 19:54:00,89.0,78.0,29.98,West,269,0.0,3.0,71,0.00,,,0.00,weatherlink.com 1.10,2013-07-18 23:54:00,
2013-07-18 20:09:00,87.7,79.0,29.98,West,269,0.0,2.0,75,0.00,,,0.00,weatherlink.com 1.10,2013-07-19 00:09:00,
2013-07-18 20:25:00,86.6,79.0,29.98,West,269,0.0,1.0,78,0.00,,,0.00,weatherlink.com 1.10,2013-07-19 00:25:00,
2013-07-18 20:40:00,85.0,78.0,29.98,West,269,0.0,0.0,80,0.00,,,0.00,weatherlink.com 1.10,2013-07-19 00:40:00,
2013-07-18 20:55:00,83.5,78.0,29.99,West,269,0.0,0.0,83,0.00,,,0.00,weatherlink.com 1.10,2013-07-19 00:55:00,
2013-07-18 21:10:00,82.4,77.0,29.99,West,269,0.0,0.0,83,0.00,,,0.00,weatherlink.com 1.10,2013-07-19 01:10:00,
2013-07-18 21:26:00,81.1,76.0,29.99,West,269,0.0,0.0,85,0.00,,,0.00,weatherlink.com 1.10,2013-07-19 01:26:00,
2013-07-18 21:41:00,80.1,76.0,29.99,West,269,0.0,0.0,87,0.00,,,0.00,weatherlink.com 1.10,2013-07-19 01:41:00,
2013-07-18 21:56:00,79.4,76.0,29.99,West,269,0.0,0.0,88,0.00,,,0.00,weatherlink.com 1.10,2013-07-19 01:56:00,
2013-07-18 22:11:00,78.8,75.0,30.00,West,269,0.0,0.0,89,0.00,,,0.00,weatherlink.com 1.10,2013-07-19 02:11:00,
2013-07-18 22:28:00,78.4,75.0,30.00,West,269,0.0,0.0,89,0.00,,,0.00,weatherlink.com 1.10,2013-07-19 02:28:00,
2013-07-18 22:42:00,77.8,75.0,30.00,West,269,0.0,0.0,91,0.00,,,0.00,weatherlink.com 1.10,2013-07-19 02:42:00,
2013-07-18 22:58:00,77.4,75.0,30.00,West,269,0.0,0.0,91,0.00,,,0.00,weatherlink.com 1.10,2013-07-19 02:58:00,
2013-07-18 23:13:00,77.0,74.0,30.00,West,269,0.0,0.0,91,0.00,,,0.00,weatherlink.com 1.10,2013-07-19 03:13:00,
2013-07-18 23:28:00,76.7,74.0,30.00,West,269,0.0,0.0,92,0.00,,,0.00,weatherlink.com 1.10,2013-07-19 03:28:00,
2013-07-18 23:42:00,76.6,75.0,30.00,West,269,0.0,0.0,94,0.00,,,0.00,weatherlink.com 1.10,2013-07-19 03:42:00,
2013-07-18 23:58:00,76.4,75.0,30.00,West,269,0.0,0.0,94,0.00,,,0.00,weatherlink.com 1.10,2013-07-19 03:58:00,